sensor_id;sensor_type;location;lat;lon;timestamp;P1;durP1;ratioP1;P2;durP2;ratioP2
8640;SDS011;4358;42.100;25.222;2022-11-23T00:02:06;1.47;;;1.30;;
8640;SDS011;4358;42.100;25.222;2022-11-23T00:04:33;3.57;;;1.40;;
8640;SDS011;4358;42.100;25.222;2022-11-23T00:07:00;2.30;;;1.47;;
8640;SDS011;4358;42.100;25.222;2022-11-23T00:09:26;6.30;;;2.30;;
8640;SDS011;4358;42.100;25.222;2022-11-23T00:11:53;3.23;;;2.20;;
8640;SDS011;4358;42.100;25.222;2022-11-23T00:14:20;3.77;;;2.87;;
8640;SDS011;4358;42.100;25.222;2022-11-23T00:16:47;4.03;;;2.57;;
8640;SDS011;4358;42.100;25.222;2022-11-23T00:19:15;4.37;;;2.53;;
8640;SDS011;4358;42.100;25.222;2022-11-23T00:21:42;3.53;;;2.47;;
8640;SDS011;4358;42.100;25.222;2022-11-23T00:24:10;4.53;;;2.80;;
8640;SDS011;4358;42.100;25.222;2022-11-23T00:26:37;2.90;;;2.37;;
8640;SDS011;4358;42.100;25.222;2022-11-23T00:29:04;3.33;;;2.27;;
8640;SDS011;4358;42.100;25.222;2022-11-23T00:31:31;1.70;;;1.40;;
8640;SDS011;4358;42.100;25.222;2022-11-23T00:33:58;1.20;;;1.10;;
8640;SDS011;4358;42.100;25.222;2022-11-23T00:36:26;3.80;;;2.40;;
8640;SDS011;4358;42.100;25.222;2022-11-23T00:38:53;2.87;;;1.83;;
8640;SDS011;4358;42.100;25.222;2022-11-23T00:41:22;1.80;;;1.50;;
8640;SDS011;4358;42.100;25.222;2022-11-23T00:43:50;2.70;;;1.70;;
8640;SDS011;4358;42.100;25.222;2022-11-23T00:46:18;2.50;;;1.90;;
8640;SDS011;4358;42.100;25.222;2022-11-23T00:48:46;2.17;;;1.80;;
8640;SDS011;4358;42.100;25.222;2022-11-23T00:51:16;2.57;;;2.10;;
8640;SDS011;4358;42.100;25.222;2022-11-23T00:53:45;3.27;;;1.80;;
8640;SDS011;4358;42.100;25.222;2022-11-23T00:56:12;2.37;;;1.80;;
8640;SDS011;4358;42.100;25.222;2022-11-23T00:58:39;4.00;;;1.70;;
8640;SDS011;4358;42.100;25.222;2022-11-23T01:01:07;2.50;;;1.37;;
8640;SDS011;4358;42.100;25.222;2022-11-23T01:03:36;1.50;;;1.20;;
8640;SDS011;4358;42.100;25.222;2022-11-23T01:06:04;1.67;;;1.27;;
8640;SDS011;4358;42.100;25.222;2022-11-23T01:08:32;1.60;;;1.30;;
8640;SDS011;4358;42.100;25.222;2022-11-23T01:11:01;1.73;;;1.20;;
8640;SDS011;4358;42.100;25.222;2022-11-23T01:13:31;2.47;;;1.43;;
8640;SDS011;4358;42.100;25.222;2022-11-23T01:15:58;2.80;;;2.37;;
8640;SDS011;4358;42.100;25.222;2022-11-23T01:18:26;2.63;;;1.90;;
8640;SDS011;4358;42.100;25.222;2022-11-23T01:20:54;2.70;;;2.20;;
8640;SDS011;4358;42.100;25.222;2022-11-23T01:23:20;1.43;;;1.33;;
8640;SDS011;4358;42.100;25.222;2022-11-23T01:25:47;4.30;;;1.67;;
8640;SDS011;4358;42.100;25.222;2022-11-23T01:28:15;2.30;;;1.70;;
8640;SDS011;4358;42.100;25.222;2022-11-23T01:30:42;3.43;;;1.83;;
8640;SDS011;4358;42.100;25.222;2022-11-23T01:33:09;2.17;;;1.90;;
8640;SDS011;4358;42.100;25.222;2022-11-23T01:35:36;1.57;;;1.33;;
8640;SDS011;4358;42.100;25.222;2022-11-23T01:38:03;2.87;;;1.53;;
8640;SDS011;4358;42.100;25.222;2022-11-23T01:40:33;2.07;;;1.63;;
8640;SDS011;4358;42.100;25.222;2022-11-23T01:43:05;1.60;;;1.50;;
8640;SDS011;4358;42.100;25.222;2022-11-23T01:45:40;1.93;;;1.63;;
8640;SDS011;4358;42.100;25.222;2022-11-23T01:48:13;1.50;;;1.40;;
8640;SDS011;4358;42.100;25.222;2022-11-23T01:50:45;1.53;;;1.30;;
8640;SDS011;4358;42.100;25.222;2022-11-23T01:53:14;4.10;;;1.57;;
8640;SDS011;4358;42.100;25.222;2022-11-23T01:55:42;1.40;;;1.20;;
8640;SDS011;4358;42.100;25.222;2022-11-23T01:58:11;1.70;;;1.43;;
8640;SDS011;4358;42.100;25.222;2022-11-23T02:00:42;1.63;;;1.30;;
8640;SDS011;4358;42.100;25.222;2022-11-23T02:03:10;1.27;;;1.10;;
8640;SDS011;4358;42.100;25.222;2022-11-23T02:05:39;1.20;;;1.10;;
8640;SDS011;4358;42.100;25.222;2022-11-23T02:08:10;1.23;;;1.13;;
8640;SDS011;4358;42.100;25.222;2022-11-23T02:10:37;1.93;;;1.07;;
8640;SDS011;4358;42.100;25.222;2022-11-23T02:13:05;2.70;;;1.40;;
8640;SDS011;4358;42.100;25.222;2022-11-23T02:15:33;2.43;;;1.43;;
8640;SDS011;4358;42.100;25.222;2022-11-23T02:18:03;1.37;;;1.27;;
8640;SDS011;4358;42.100;25.222;2022-11-23T02:20:32;2.37;;;1.60;;
8640;SDS011;4358;42.100;25.222;2022-11-23T02:23:04;1.73;;;1.40;;
8640;SDS011;4358;42.100;25.222;2022-11-23T02:25:47;3.40;;;2.17;;
8640;SDS011;4358;42.100;25.222;2022-11-23T02:28:21;2.27;;;1.83;;
8640;SDS011;4358;42.100;25.222;2022-11-23T02:30:52;2.73;;;1.80;;
8640;SDS011;4358;42.100;25.222;2022-11-23T02:33:20;2.53;;;1.70;;
8640;SDS011;4358;42.100;25.222;2022-11-23T02:35:47;5.67;;;1.47;;
8640;SDS011;4358;42.100;25.222;2022-11-23T02:38:15;5.10;;;1.93;;
8640;SDS011;4358;42.100;25.222;2022-11-23T02:40:43;2.77;;;1.70;;
8640;SDS011;4358;42.100;25.222;2022-11-23T02:43:12;1.63;;;1.53;;
8640;SDS011;4358;42.100;25.222;2022-11-23T02:45:41;3.33;;;2.30;;
8640;SDS011;4358;42.100;25.222;2022-11-23T02:48:15;3.63;;;2.50;;
8640;SDS011;4358;42.100;25.222;2022-11-23T02:50:42;3.20;;;2.10;;
8640;SDS011;4358;42.100;25.222;2022-11-23T02:53:09;3.93;;;2.03;;
8640;SDS011;4358;42.100;25.222;2022-11-23T02:55:36;2.50;;;2.27;;
8640;SDS011;4358;42.100;25.222;2022-11-23T02:58:04;2.60;;;2.37;;
8640;SDS011;4358;42.100;25.222;2022-11-23T03:00:33;2.97;;;2.30;;
8640;SDS011;4358;42.100;25.222;2022-11-23T03:03:01;5.13;;;3.13;;
8640;SDS011;4358;42.100;25.222;2022-11-23T03:05:28;4.30;;;2.47;;
8640;SDS011;4358;42.100;25.222;2022-11-23T03:07:55;5.97;;;2.97;;
8640;SDS011;4358;42.100;25.222;2022-11-23T03:10:23;3.70;;;2.37;;
8640;SDS011;4358;42.100;25.222;2022-11-23T03:12:52;2.93;;;2.27;;
8640;SDS011;4358;42.100;25.222;2022-11-23T03:15:19;4.47;;;2.40;;
8640;SDS011;4358;42.100;25.222;2022-11-23T03:17:48;2.67;;;2.17;;
8640;SDS011;4358;42.100;25.222;2022-11-23T03:20:15;2.53;;;1.93;;
8640;SDS011;4358;42.100;25.222;2022-11-23T03:22:42;4.30;;;1.93;;
8640;SDS011;4358;42.100;25.222;2022-11-23T03:25:09;2.90;;;2.30;;
8640;SDS011;4358;42.100;25.222;2022-11-23T03:27:36;3.20;;;2.03;;
8640;SDS011;4358;42.100;25.222;2022-11-23T03:30:04;2.00;;;1.80;;
8640;SDS011;4358;42.100;25.222;2022-11-23T03:32:33;2.43;;;2.23;;
8640;SDS011;4358;42.100;25.222;2022-11-23T03:35:02;2.93;;;1.77;;
8640;SDS011;4358;42.100;25.222;2022-11-23T03:37:30;2.50;;;1.70;;
8640;SDS011;4358;42.100;25.222;2022-11-23T03:39:57;5.53;;;1.53;;
8640;SDS011;4358;42.100;25.222;2022-11-23T03:42:24;1.53;;;1.30;;
8640;SDS011;4358;42.100;25.222;2022-11-23T03:44:50;2.40;;;1.60;;
8640;SDS011;4358;42.100;25.222;2022-11-23T03:47:17;3.50;;;1.50;;
8640;SDS011;4358;42.100;25.222;2022-11-23T03:49:44;2.23;;;1.57;;
8640;SDS011;4358;42.100;25.222;2022-11-23T03:52:12;2.63;;;1.83;;
8640;SDS011;4358;42.100;25.222;2022-11-23T03:54:39;2.67;;;2.03;;
8640;SDS011;4358;42.100;25.222;2022-11-23T03:57:06;3.93;;;2.40;;
8640;SDS011;4358;42.100;25.222;2022-11-23T03:59:33;3.60;;;2.43;;
8640;SDS011;4358;42.100;25.222;2022-11-23T04:02:00;3.07;;;2.43;;
8640;SDS011;4358;42.100;25.222;2022-11-23T04:04:26;3.87;;;2.40;;
8640;SDS011;4358;42.100;25.222;2022-11-23T04:06:53;5.17;;;2.50;;
8640;SDS011;4358;42.100;25.222;2022-11-23T04:09:22;2.13;;;1.83;;
8640;SDS011;4358;42.100;25.222;2022-11-23T04:11:48;2.60;;;1.63;;
8640;SDS011;4358;42.100;25.222;2022-11-23T04:14:15;1.93;;;1.23;;
8640;SDS011;4358;42.100;25.222;2022-11-23T04:16:42;1.93;;;1.70;;
8640;SDS011;4358;42.100;25.222;2022-11-23T04:19:09;1.57;;;1.30;;
8640;SDS011;4358;42.100;25.222;2022-11-23T04:21:36;2.73;;;1.40;;
8640;SDS011;4358;42.100;25.222;2022-11-23T04:24:03;2.20;;;1.60;;
8640;SDS011;4358;42.100;25.222;2022-11-23T04:26:32;2.80;;;1.50;;
8640;SDS011;4358;42.100;25.222;2022-11-23T04:28:58;1.60;;;1.33;;
8640;SDS011;4358;42.100;25.222;2022-11-23T04:31:25;1.60;;;1.37;;
8640;SDS011;4358;42.100;25.222;2022-11-23T04:33:53;3.30;;;1.47;;
8640;SDS011;4358;42.100;25.222;2022-11-23T04:36:20;1.37;;;1.10;;
8640;SDS011;4358;42.100;25.222;2022-11-23T04:38:47;1.67;;;1.37;;
8640;SDS011;4358;42.100;25.222;2022-11-23T04:41:14;9.23;;;1.90;;
8640;SDS011;4358;42.100;25.222;2022-11-23T04:43:42;2.07;;;1.80;;
8640;SDS011;4358;42.100;25.222;2022-11-23T04:46:09;4.97;;;2.00;;
8640;SDS011;4358;42.100;25.222;2022-11-23T04:48:37;2.73;;;2.00;;
8640;SDS011;4358;42.100;25.222;2022-11-23T04:51:04;2.90;;;2.30;;
8640;SDS011;4358;42.100;25.222;2022-11-23T04:53:31;2.90;;;2.17;;
8640;SDS011;4358;42.100;25.222;2022-11-23T04:55:58;3.43;;;2.23;;
8640;SDS011;4358;42.100;25.222;2022-11-23T04:58:25;3.37;;;2.43;;
8640;SDS011;4358;42.100;25.222;2022-11-23T05:00:53;3.07;;;2.33;;
8640;SDS011;4358;42.100;25.222;2022-11-23T05:03:20;4.10;;;2.50;;
8640;SDS011;4358;42.100;25.222;2022-11-23T05:05:47;3.77;;;2.23;;
8640;SDS011;4358;42.100;25.222;2022-11-23T05:08:14;3.97;;;2.60;;
8640;SDS011;4358;42.100;25.222;2022-11-23T05:10:41;2.97;;;2.40;;
8640;SDS011;4358;42.100;25.222;2022-11-23T05:13:09;3.63;;;2.37;;
8640;SDS011;4358;42.100;25.222;2022-11-23T05:15:35;4.43;;;2.50;;
8640;SDS011;4358;42.100;25.222;2022-11-23T05:18:04;4.00;;;2.63;;
8640;SDS011;4358;42.100;25.222;2022-11-23T05:20:32;4.33;;;2.87;;
8640;SDS011;4358;42.100;25.222;2022-11-23T05:22:59;4.07;;;2.70;;
8640;SDS011;4358;42.100;25.222;2022-11-23T05:25:26;3.13;;;2.33;;
8640;SDS011;4358;42.100;25.222;2022-11-23T05:27:53;5.10;;;2.90;;
8640;SDS011;4358;42.100;25.222;2022-11-23T05:30:20;3.83;;;2.87;;
8640;SDS011;4358;42.100;25.222;2022-11-23T05:32:47;5.00;;;3.20;;
8640;SDS011;4358;42.100;25.222;2022-11-23T05:35:15;4.27;;;3.07;;
8640;SDS011;4358;42.100;25.222;2022-11-23T05:37:43;4.73;;;3.30;;
8640;SDS011;4358;42.100;25.222;2022-11-23T05:40:10;4.83;;;3.40;;
8640;SDS011;4358;42.100;25.222;2022-11-23T05:42:37;6.93;;;3.13;;
8640;SDS011;4358;42.100;25.222;2022-11-23T05:45:05;5.33;;;3.57;;
8640;SDS011;4358;42.100;25.222;2022-11-23T05:47:32;5.50;;;3.13;;
8640;SDS011;4358;42.100;25.222;2022-11-23T05:49:59;4.97;;;2.60;;
8640;SDS011;4358;42.100;25.222;2022-11-23T05:52:27;3.50;;;2.60;;
8640;SDS011;4358;42.100;25.222;2022-11-23T05:54:54;3.57;;;2.70;;
8640;SDS011;4358;42.100;25.222;2022-11-23T05:57:21;3.43;;;2.70;;
8640;SDS011;4358;42.100;25.222;2022-11-23T05:59:47;3.70;;;2.60;;
8640;SDS011;4358;42.100;25.222;2022-11-23T06:02:15;3.93;;;3.23;;
8640;SDS011;4358;42.100;25.222;2022-11-23T06:04:42;5.13;;;4.00;;
8640;SDS011;4358;42.100;25.222;2022-11-23T06:07:09;4.70;;;3.60;;
8640;SDS011;4358;42.100;25.222;2022-11-23T06:09:37;2.97;;;2.67;;
8640;SDS011;4358;42.100;25.222;2022-11-23T06:12:04;3.47;;;2.37;;
8640;SDS011;4358;42.100;25.222;2022-11-23T06:14:31;3.93;;;2.40;;
8640;SDS011;4358;42.100;25.222;2022-11-23T06:16:58;3.57;;;2.60;;
8640;SDS011;4358;42.100;25.222;2022-11-23T06:19:25;4.10;;;2.93;;
8640;SDS011;4358;42.100;25.222;2022-11-23T06:21:54;3.50;;;2.77;;
8640;SDS011;4358;42.100;25.222;2022-11-23T06:24:21;5.80;;;3.70;;
8640;SDS011;4358;42.100;25.222;2022-11-23T06:26:49;6.37;;;3.97;;
8640;SDS011;4358;42.100;25.222;2022-11-23T06:29:16;5.07;;;3.50;;
8640;SDS011;4358;42.100;25.222;2022-11-23T06:31:43;4.20;;;3.20;;
8640;SDS011;4358;42.100;25.222;2022-11-23T06:34:10;7.30;;;4.40;;
8640;SDS011;4358;42.100;25.222;2022-11-23T06:36:38;6.53;;;4.43;;
8640;SDS011;4358;42.100;25.222;2022-11-23T06:39:05;6.27;;;4.03;;
8640;SDS011;4358;42.100;25.222;2022-11-23T06:41:32;5.00;;;4.30;;
8640;SDS011;4358;42.100;25.222;2022-11-23T06:44:00;6.93;;;4.13;;
8640;SDS011;4358;42.100;25.222;2022-11-23T06:46:27;5.10;;;4.17;;
8640;SDS011;4358;42.100;25.222;2022-11-23T06:48:54;4.97;;;3.00;;
8640;SDS011;4358;42.100;25.222;2022-11-23T06:51:21;4.03;;;2.70;;
8640;SDS011;4358;42.100;25.222;2022-11-23T06:53:47;4.70;;;3.47;;
8640;SDS011;4358;42.100;25.222;2022-11-23T06:56:14;6.07;;;3.40;;
8640;SDS011;4358;42.100;25.222;2022-11-23T06:58:41;5.70;;;3.20;;
8640;SDS011;4358;42.100;25.222;2022-11-23T07:01:10;6.00;;;3.57;;
8640;SDS011;4358;42.100;25.222;2022-11-23T07:03:36;5.17;;;3.13;;
8640;SDS011;4358;42.100;25.222;2022-11-23T07:06:04;6.77;;;2.90;;
8640;SDS011;4358;42.100;25.222;2022-11-23T07:08:31;4.37;;;3.17;;
8640;SDS011;4358;42.100;25.222;2022-11-23T07:10:59;2.57;;;2.20;;
8640;SDS011;4358;42.100;25.222;2022-11-23T07:13:26;3.83;;;2.60;;
8640;SDS011;4358;42.100;25.222;2022-11-23T07:15:53;9.10;;;3.40;;
8640;SDS011;4358;42.100;25.222;2022-11-23T07:18:24;5.67;;;3.10;;
8640;SDS011;4358;42.100;25.222;2022-11-23T07:20:51;6.07;;;2.87;;
8640;SDS011;4358;42.100;25.222;2022-11-23T07:23:18;4.33;;;3.00;;
8640;SDS011;4358;42.100;25.222;2022-11-23T07:25:45;5.07;;;2.87;;
8640;SDS011;4358;42.100;25.222;2022-11-23T07:28:11;3.70;;;2.67;;
8640;SDS011;4358;42.100;25.222;2022-11-23T07:30:39;3.60;;;3.13;;
8640;SDS011;4358;42.100;25.222;2022-11-23T07:33:06;8.50;;;3.40;;
8640;SDS011;4358;42.100;25.222;2022-11-23T07:35:37;5.53;;;3.07;;
8640;SDS011;4358;42.100;25.222;2022-11-23T07:38:05;3.90;;;3.13;;
8640;SDS011;4358;42.100;25.222;2022-11-23T07:40:33;5.50;;;3.10;;
8640;SDS011;4358;42.100;25.222;2022-11-23T07:43:02;5.50;;;2.63;;
8640;SDS011;4358;42.100;25.222;2022-11-23T07:45:29;3.97;;;2.93;;
8640;SDS011;4358;42.100;25.222;2022-11-23T07:47:57;6.33;;;3.20;;
8640;SDS011;4358;42.100;25.222;2022-11-23T07:50:24;4.23;;;3.23;;
8640;SDS011;4358;42.100;25.222;2022-11-23T07:52:53;7.60;;;3.50;;
8640;SDS011;4358;42.100;25.222;2022-11-23T07:55:20;4.77;;;3.13;;
8640;SDS011;4358;42.100;25.222;2022-11-23T07:57:50;4.40;;;3.33;;
8640;SDS011;4358;42.100;25.222;2022-11-23T08:00:18;3.87;;;2.80;;
8640;SDS011;4358;42.100;25.222;2022-11-23T08:02:46;5.47;;;3.00;;
8640;SDS011;4358;42.100;25.222;2022-11-23T08:05:13;4.47;;;2.97;;
8640;SDS011;4358;42.100;25.222;2022-11-23T08:07:40;4.00;;;3.20;;
8640;SDS011;4358;42.100;25.222;2022-11-23T08:10:08;5.37;;;3.23;;
8640;SDS011;4358;42.100;25.222;2022-11-23T08:12:36;4.43;;;2.97;;
8640;SDS011;4358;42.100;25.222;2022-11-23T08:15:03;4.27;;;2.67;;
8640;SDS011;4358;42.100;25.222;2022-11-23T08:17:31;3.13;;;2.43;;
8640;SDS011;4358;42.100;25.222;2022-11-23T08:19:58;5.87;;;3.27;;
8640;SDS011;4358;42.100;25.222;2022-11-23T08:22:25;4.47;;;2.83;;
8640;SDS011;4358;42.100;25.222;2022-11-23T08:24:52;4.03;;;3.13;;
8640;SDS011;4358;42.100;25.222;2022-11-23T08:27:20;4.17;;;3.40;;
8640;SDS011;4358;42.100;25.222;2022-11-23T08:29:47;3.63;;;3.13;;
8640;SDS011;4358;42.100;25.222;2022-11-23T08:32:14;4.60;;;3.27;;
8640;SDS011;4358;42.100;25.222;2022-11-23T08:34:41;4.63;;;3.00;;
8640;SDS011;4358;42.100;25.222;2022-11-23T08:37:08;5.60;;;3.47;;
8640;SDS011;4358;42.100;25.222;2022-11-23T08:39:35;7.10;;;3.60;;
8640;SDS011;4358;42.100;25.222;2022-11-23T08:42:02;6.67;;;3.47;;
8640;SDS011;4358;42.100;25.222;2022-11-23T08:44:31;5.37;;;3.57;;
8640;SDS011;4358;42.100;25.222;2022-11-23T08:46:58;11.50;;;6.87;;
8640;SDS011;4358;42.100;25.222;2022-11-23T08:49:26;6.07;;;4.23;;
8640;SDS011;4358;42.100;25.222;2022-11-23T08:51:52;12.07;;;7.40;;
8640;SDS011;4358;42.100;25.222;2022-11-23T08:54:20;7.83;;;4.73;;
8640;SDS011;4358;42.100;25.222;2022-11-23T08:56:48;5.53;;;3.70;;
8640;SDS011;4358;42.100;25.222;2022-11-23T08:59:15;6.80;;;3.73;;
8640;SDS011;4358;42.100;25.222;2022-11-23T09:01:44;7.50;;;4.57;;
8640;SDS011;4358;42.100;25.222;2022-11-23T09:04:11;9.40;;;5.67;;
8640;SDS011;4358;42.100;25.222;2022-11-23T09:06:38;7.30;;;3.67;;
8640;SDS011;4358;42.100;25.222;2022-11-23T09:09:05;5.10;;;3.70;;
8640;SDS011;4358;42.100;25.222;2022-11-23T09:11:32;7.27;;;4.57;;
8640;SDS011;4358;42.100;25.222;2022-11-23T09:13:59;6.80;;;4.27;;
8640;SDS011;4358;42.100;25.222;2022-11-23T09:16:26;6.33;;;4.50;;
8640;SDS011;4358;42.100;25.222;2022-11-23T09:18:55;6.50;;;3.47;;
8640;SDS011;4358;42.100;25.222;2022-11-23T09:21:22;5.93;;;4.13;;
8640;SDS011;4358;42.100;25.222;2022-11-23T09:23:54;6.07;;;4.43;;
8640;SDS011;4358;42.100;25.222;2022-11-23T09:26:21;4.83;;;3.47;;
8640;SDS011;4358;42.100;25.222;2022-11-23T09:28:48;5.40;;;3.97;;
8640;SDS011;4358;42.100;25.222;2022-11-23T09:31:15;5.40;;;3.70;;
8640;SDS011;4358;42.100;25.222;2022-11-23T09:33:42;7.80;;;3.77;;
8640;SDS011;4358;42.100;25.222;2022-11-23T09:36:10;5.80;;;3.73;;
8640;SDS011;4358;42.100;25.222;2022-11-23T09:38:37;4.77;;;3.60;;
8640;SDS011;4358;42.100;25.222;2022-11-23T09:41:06;4.77;;;3.77;;
8640;SDS011;4358;42.100;25.222;2022-11-23T09:43:47;5.23;;;3.50;;
8640;SDS011;4358;42.100;25.222;2022-11-23T09:46:23;5.73;;;3.33;;
8640;SDS011;4358;42.100;25.222;2022-11-23T09:49:09;4.60;;;3.43;;
8640;SDS011;4358;42.100;25.222;2022-11-23T09:51:41;5.27;;;3.47;;
8640;SDS011;4358;42.100;25.222;2022-11-23T09:54:10;4.73;;;3.30;;
8640;SDS011;4358;42.100;25.222;2022-11-23T09:56:48;5.43;;;2.87;;
8640;SDS011;4358;42.100;25.222;2022-11-23T09:59:21;5.87;;;3.67;;
8640;SDS011;4358;42.100;25.222;2022-11-23T10:01:56;5.07;;;3.87;;
8640;SDS011;4358;42.100;25.222;2022-11-23T10:04:24;4.87;;;3.23;;
8640;SDS011;4358;42.100;25.222;2022-11-23T10:06:56;6.90;;;4.00;;
8640;SDS011;4358;42.100;25.222;2022-11-23T10:09:32;5.30;;;3.33;;
8640;SDS011;4358;42.100;25.222;2022-11-23T10:12:12;6.17;;;3.93;;
8640;SDS011;4358;42.100;25.222;2022-11-23T10:15:02;7.37;;;3.47;;
8640;SDS011;4358;42.100;25.222;2022-11-23T10:17:48;5.17;;;3.57;;
8640;SDS011;4358;42.100;25.222;2022-11-23T10:20:33;5.83;;;4.07;;
8640;SDS011;4358;42.100;25.222;2022-11-23T10:23:12;7.13;;;3.33;;
8640;SDS011;4358;42.100;25.222;2022-11-23T10:25:44;4.53;;;2.80;;
8640;SDS011;4358;42.100;25.222;2022-11-23T10:28:15;4.73;;;3.27;;
8640;SDS011;4358;42.100;25.222;2022-11-23T10:30:44;5.07;;;3.10;;
8640;SDS011;4358;42.100;25.222;2022-11-23T10:33:16;5.13;;;3.50;;
8640;SDS011;4358;42.100;25.222;2022-11-23T10:35:51;5.10;;;3.10;;
8640;SDS011;4358;42.100;25.222;2022-11-23T10:38:20;6.03;;;3.80;;
8640;SDS011;4358;42.100;25.222;2022-11-23T10:40:53;5.50;;;3.77;;
8640;SDS011;4358;42.100;25.222;2022-11-23T10:43:28;7.00;;;3.57;;
8640;SDS011;4358;42.100;25.222;2022-11-23T10:51:56;7.40;;;4.47;;
8640;SDS011;4358;42.100;25.222;2022-11-23T10:54:30;5.80;;;4.07;;
8640;SDS011;4358;42.100;25.222;2022-11-23T10:56:59;5.93;;;3.83;;
8640;SDS011;4358;42.100;25.222;2022-11-23T10:59:29;5.43;;;4.03;;
8640;SDS011;4358;42.100;25.222;2022-11-23T11:02:12;4.73;;;3.60;;
8640;SDS011;4358;42.100;25.222;2022-11-23T11:04:42;3.43;;;2.90;;
8640;SDS011;4358;42.100;25.222;2022-11-23T11:07:19;3.60;;;2.90;;
8640;SDS011;4358;42.100;25.222;2022-11-23T11:09:50;4.27;;;3.53;;
8640;SDS011;4358;42.100;25.222;2022-11-23T11:12:19;5.63;;;4.10;;
8640;SDS011;4358;42.100;25.222;2022-11-23T11:14:57;5.40;;;3.57;;
8640;SDS011;4358;42.100;25.222;2022-11-23T11:17:30;6.33;;;3.70;;
8640;SDS011;4358;42.100;25.222;2022-11-23T11:19:58;6.43;;;4.20;;
8640;SDS011;4358;42.100;25.222;2022-11-23T11:22:26;6.43;;;3.63;;
8640;SDS011;4358;42.100;25.222;2022-11-23T11:25:01;5.70;;;3.80;;
8640;SDS011;4358;42.100;25.222;2022-11-23T11:27:30;4.63;;;3.83;;
8640;SDS011;4358;42.100;25.222;2022-11-23T11:30:01;6.57;;;4.63;;
8640;SDS011;4358;42.100;25.222;2022-11-23T11:32:33;7.00;;;4.67;;
8640;SDS011;4358;42.100;25.222;2022-11-23T11:35:10;7.57;;;5.77;;
8640;SDS011;4358;42.100;25.222;2022-11-23T11:37:41;6.03;;;4.37;;
8640;SDS011;4358;42.100;25.222;2022-11-23T11:40:16;6.53;;;4.70;;
8640;SDS011;4358;42.100;25.222;2022-11-23T11:42:47;6.17;;;4.70;;
8640;SDS011;4358;42.100;25.222;2022-11-23T11:45:20;4.53;;;4.00;;
8640;SDS011;4358;42.100;25.222;2022-11-23T11:47:52;6.30;;;4.00;;
8640;SDS011;4358;42.100;25.222;2022-11-23T11:50:24;6.07;;;4.73;;
8640;SDS011;4358;42.100;25.222;2022-11-23T11:52:55;6.73;;;4.03;;
8640;SDS011;4358;42.100;25.222;2022-11-23T11:55:32;5.10;;;4.07;;
8640;SDS011;4358;42.100;25.222;2022-11-23T11:58:13;6.83;;;4.60;;
8640;SDS011;4358;42.100;25.222;2022-11-23T12:00:42;5.83;;;4.40;;
8640;SDS011;4358;42.100;25.222;2022-11-23T12:03:13;5.30;;;3.77;;
8640;SDS011;4358;42.100;25.222;2022-11-23T12:05:49;6.37;;;4.30;;
8640;SDS011;4358;42.100;25.222;2022-11-23T12:08:20;7.70;;;4.87;;
8640;SDS011;4358;42.100;25.222;2022-11-23T12:10:55;6.33;;;4.70;;
8640;SDS011;4358;42.100;25.222;2022-11-23T12:13:27;7.10;;;4.77;;
8640;SDS011;4358;42.100;25.222;2022-11-23T12:16:00;6.67;;;4.00;;
8640;SDS011;4358;42.100;25.222;2022-11-23T12:18:38;5.37;;;4.20;;
8640;SDS011;4358;42.100;25.222;2022-11-23T12:21:25;4.70;;;3.70;;
8640;SDS011;4358;42.100;25.222;2022-11-23T12:24:11;5.37;;;4.10;;
8640;SDS011;4358;42.100;25.222;2022-11-23T12:26:50;5.20;;;4.07;;
8640;SDS011;4358;42.100;25.222;2022-11-23T12:29:28;8.27;;;4.87;;
8640;SDS011;4358;42.100;25.222;2022-11-23T12:32:08;5.53;;;4.53;;
8640;SDS011;4358;42.100;25.222;2022-11-23T12:34:44;10.30;;;5.50;;
8640;SDS011;4358;42.100;25.222;2022-11-23T12:37:37;8.60;;;5.10;;
8640;SDS011;4358;42.100;25.222;2022-11-23T12:40:13;6.80;;;4.63;;
8640;SDS011;4358;42.100;25.222;2022-11-23T12:42:53;6.50;;;5.27;;
8640;SDS011;4358;42.100;25.222;2022-11-23T12:45:37;5.57;;;4.20;;
8640;SDS011;4358;42.100;25.222;2022-11-23T12:48:17;5.20;;;4.03;;
8640;SDS011;4358;42.100;25.222;2022-11-23T12:50:56;5.73;;;4.23;;
8640;SDS011;4358;42.100;25.222;2022-11-23T12:53:33;6.37;;;4.37;;
8640;SDS011;4358;42.100;25.222;2022-11-23T12:56:11;6.43;;;4.67;;
8640;SDS011;4358;42.100;25.222;2022-11-23T12:58:49;10.77;;;7.00;;
8640;SDS011;4358;42.100;25.222;2022-11-23T13:01:20;13.00;;;9.23;;
8640;SDS011;4358;42.100;25.222;2022-11-23T13:13:05;8.57;;;5.03;;
8640;SDS011;4358;42.100;25.222;2022-11-23T13:15:57;7.60;;;4.93;;
8640;SDS011;4358;42.100;25.222;2022-11-23T13:18:47;10.33;;;7.37;;
8640;SDS011;4358;42.100;25.222;2022-11-23T13:21:23;8.17;;;5.93;;
8640;SDS011;4358;42.100;25.222;2022-11-23T13:23:55;6.30;;;5.33;;
8640;SDS011;4358;42.100;25.222;2022-11-23T13:26:24;7.47;;;5.03;;
8640;SDS011;4358;42.100;25.222;2022-11-23T13:28:52;6.70;;;4.60;;
8640;SDS011;4358;42.100;25.222;2022-11-23T13:31:24;8.47;;;4.70;;
8640;SDS011;4358;42.100;25.222;2022-11-23T13:33:54;6.20;;;5.60;;
8640;SDS011;4358;42.100;25.222;2022-11-23T13:42:21;8.03;;;4.53;;
8640;SDS011;4358;42.100;25.222;2022-11-23T13:50:54;5.17;;;4.17;;
8640;SDS011;4358;42.100;25.222;2022-11-23T13:53:24;7.03;;;5.00;;
8640;SDS011;4358;42.100;25.222;2022-11-23T13:55:53;7.80;;;6.27;;
8640;SDS011;4358;42.100;25.222;2022-11-23T13:58:36;8.27;;;5.60;;
8640;SDS011;4358;42.100;25.222;2022-11-23T14:01:04;13.17;;;9.13;;
8640;SDS011;4358;42.100;25.222;2022-11-23T14:03:45;6.60;;;5.30;;
8640;SDS011;4358;42.100;25.222;2022-11-23T14:06:21;15.23;;;6.57;;
8640;SDS011;4358;42.100;25.222;2022-11-23T14:08:59;13.07;;;5.77;;
8640;SDS011;4358;42.100;25.222;2022-11-23T14:11:30;13.47;;;5.90;;
8640;SDS011;4358;42.100;25.222;2022-11-23T14:14:02;8.80;;;5.37;;
8640;SDS011;4358;42.100;25.222;2022-11-23T14:19:42;8.27;;;5.93;;
8640;SDS011;4358;42.100;25.222;2022-11-23T14:22:31;9.73;;;5.97;;
8640;SDS011;4358;42.100;25.222;2022-11-23T14:25:18;7.17;;;5.50;;
8640;SDS011;4358;42.100;25.222;2022-11-23T14:27:57;13.53;;;9.37;;
8640;SDS011;4358;42.100;25.222;2022-11-23T14:30:34;7.27;;;5.47;;
8640;SDS011;4358;42.100;25.222;2022-11-23T14:33:13;10.07;;;5.60;;
8640;SDS011;4358;42.100;25.222;2022-11-23T14:35:50;9.33;;;5.97;;
8640;SDS011;4358;42.100;25.222;2022-11-23T14:38:33;9.07;;;6.63;;
8640;SDS011;4358;42.100;25.222;2022-11-23T14:41:13;9.53;;;5.93;;
8640;SDS011;4358;42.100;25.222;2022-11-23T14:43:45;17.03;;;10.60;;
8640;SDS011;4358;42.100;25.222;2022-11-23T14:46:13;16.63;;;10.73;;
8640;SDS011;4358;42.100;25.222;2022-11-23T14:48:43;9.80;;;6.83;;
8640;SDS011;4358;42.100;25.222;2022-11-23T14:51:10;14.23;;;8.10;;
8640;SDS011;4358;42.100;25.222;2022-11-23T14:53:41;14.03;;;9.23;;
8640;SDS011;4358;42.100;25.222;2022-11-23T14:56:17;13.33;;;8.90;;
8640;SDS011;4358;42.100;25.222;2022-11-23T14:58:47;20.17;;;11.90;;
8640;SDS011;4358;42.100;25.222;2022-11-23T15:01:17;13.20;;;7.80;;
8640;SDS011;4358;42.100;25.222;2022-11-23T15:03:54;17.93;;;12.57;;
8640;SDS011;4358;42.100;25.222;2022-11-23T15:06:23;21.33;;;14.30;;
8640;SDS011;4358;42.100;25.222;2022-11-23T15:08:56;18.47;;;12.63;;
8640;SDS011;4358;42.100;25.222;2022-11-23T15:11:30;18.50;;;12.20;;
8640;SDS011;4358;42.100;25.222;2022-11-23T15:13:59;22.23;;;13.20;;
8640;SDS011;4358;42.100;25.222;2022-11-23T15:16:37;14.70;;;9.70;;
8640;SDS011;4358;42.100;25.222;2022-11-23T15:19:16;21.50;;;9.40;;
8640;SDS011;4358;42.100;25.222;2022-11-23T15:21:51;17.40;;;9.37;;
8640;SDS011;4358;42.100;25.222;2022-11-23T15:24:21;17.43;;;10.57;;
8640;SDS011;4358;42.100;25.222;2022-11-23T15:26:49;19.10;;;12.03;;
8640;SDS011;4358;42.100;25.222;2022-11-23T15:31:59;22.53;;;14.07;;
8640;SDS011;4358;42.100;25.222;2022-11-23T15:34:26;22.73;;;15.23;;
8640;SDS011;4358;42.100;25.222;2022-11-23T15:36:54;37.20;;;15.57;;
8640;SDS011;4358;42.100;25.222;2022-11-23T15:39:23;33.03;;;18.17;;
8640;SDS011;4358;42.100;25.222;2022-11-23T15:41:51;30.57;;;17.97;;
8640;SDS011;4358;42.100;25.222;2022-11-23T15:44:21;26.63;;;16.73;;
8640;SDS011;4358;42.100;25.222;2022-11-23T15:46:50;24.53;;;16.43;;
8640;SDS011;4358;42.100;25.222;2022-11-23T15:49:18;30.93;;;18.90;;
8640;SDS011;4358;42.100;25.222;2022-11-23T15:51:45;45.17;;;27.93;;